createdAt,value
2023-10-19T00:00:04.309Z,84.86
2023-10-19T00:01:04.445Z,85.64
2023-10-19T00:02:04.392Z,85.02
2023-10-19T00:03:04.370Z,85.64
2023-10-19T00:04:04.277Z,85.13
2023-10-19T00:05:04.378Z,85.54
2023-10-19T00:06:04.243Z,85.75
2023-10-19T00:07:04.264Z,85.64
2023-10-19T00:08:04.214Z,85.85
2023-10-19T00:09:04.251Z,85.91
2023-10-19T00:10:04.170Z,85.91
2023-10-19T00:11:04.372Z,85.60
2023-10-19T00:12:04.168Z,85.19
2023-10-19T00:13:04.140Z,84.57
2023-10-19T00:14:04.124Z,83.75
2023-10-19T00:15:04.123Z,83.75
2023-10-19T00:16:04.146Z,84.16
2023-10-19T00:17:04.141Z,84.27
2023-10-19T00:18:04.111Z,84.99
2023-10-19T00:19:04.070Z,85.81
2023-10-19T00:20:04.033Z,85.81
2023-10-19T00:21:04.034Z,85.60
2023-10-19T00:22:04.030Z,85.39
2023-10-19T00:23:04.012Z,85.19
2023-10-19T00:24:03.997Z,85.09
2023-10-19T00:25:04.000Z,84.88
2023-10-19T00:26:04.002Z,84.78
2023-10-19T00:27:03.957Z,84.67
2023-10-19T00:28:03.948Z,84.78
2023-10-19T00:29:04.060Z,85.19
2023-10-19T00:30:03.922Z,85.39
2023-10-19T00:31:03.937Z,84.36
2023-10-19T00:32:04.019Z,84.06
2023-10-19T00:33:03.899Z,83.75
2023-10-19T00:34:03.867Z,83.64
2023-10-19T00:35:03.873Z,83.85
2023-10-19T00:36:03.860Z,83.81
2023-10-19T00:37:03.819Z,84.43
2023-10-19T00:38:03.858Z,84.53
2023-10-19T00:39:03.808Z,84.53
2023-10-19T00:40:03.823Z,84.33
2023-10-19T00:41:03.764Z,84.01
2023-10-19T00:42:03.769Z,83.81
2023-10-19T00:43:03.776Z,83.61
2023-10-19T00:44:03.754Z,83.29
2023-10-19T00:45:03.731Z,83.09
2023-10-19T00:46:03.728Z,83.40
2023-10-19T00:47:03.733Z,83.61
2023-10-19T00:48:03.686Z,83.71
2023-10-19T00:49:03.719Z,84.33
2023-10-19T00:50:03.651Z,85.05
2023-10-19T00:51:03.649Z,85.67
2023-10-19T00:52:03.652Z,85.97
2023-10-19T00:53:03.630Z,85.77
2023-10-19T00:54:03.600Z,85.46
2023-10-19T00:55:03.604Z,85.46
2023-10-19T00:56:03.573Z,85.57
2023-10-19T00:57:03.613Z,85.36
2023-10-19T00:58:03.555Z,84.12
2023-10-19T00:59:03.543Z,83.36
2023-10-19T01:00:03.512Z,83.26
2023-10-19T01:01:03.544Z,82.54
2023-10-19T01:02:03.556Z,82.23
2023-10-19T01:03:03.550Z,82.23
2023-10-19T01:04:03.459Z,82.95
2023-10-19T01:05:03.465Z,83.87
2023-10-19T01:06:03.441Z,84.19
2023-10-19T01:07:03.441Z,84.19
2023-10-19T01:08:03.440Z,84.08
2023-10-19T01:09:03.405Z,84.39
2023-10-19T01:10:03.394Z,84.59
2023-10-19T01:11:03.360Z,84.59
2023-10-19T01:12:03.377Z,84.80
2023-10-19T01:13:03.360Z,85.11
2023-10-19T01:14:03.340Z,85.31
2023-10-19T01:15:03.311Z,85.42
2023-10-19T01:16:03.361Z,85.42
2023-10-19T01:17:03.344Z,85.52
2023-10-19T01:18:03.299Z,85.94
2023-10-19T01:19:03.253Z,85.83
2023-10-19T01:20:03.260Z,85.83
2023-10-19T01:21:03.261Z,86.15
2023-10-19T01:22:03.255Z,86.35
2023-10-19T01:23:03.209Z,86.15
2023-10-19T01:24:03.209Z,86.04
2023-10-19T01:25:03.185Z,86.66
2023-10-19T01:26:03.195Z,86.66
2023-10-19T01:27:03.164Z,86.24
2023-10-19T01:28:03.161Z,86.35
2023-10-19T01:29:03.142Z,86.45
2023-10-19T01:30:03.149Z,86.24
2023-10-19T01:31:03.125Z,85.83
2023-10-19T01:32:03.105Z,85.52
2023-10-19T01:33:03.112Z,85.73
2023-10-19T01:34:03.062Z,86.04
2023-10-19T01:35:03.077Z,86.15
2023-10-19T01:36:03.049Z,86.15
2023-10-19T01:37:03.020Z,86.04
2023-10-19T01:38:03.029Z,85.73
2023-10-19T01:39:03.013Z,85.52
2023-10-19T01:40:03.005Z,85.22
2023-10-19T01:41:02.956Z,85.11
2023-10-19T01:42:02.996Z,85.83
2023-10-19T01:43:03.027Z,86.31
2023-10-19T01:44:03.002Z,87.03
2023-10-19T01:45:02.924Z,87.13
2023-10-19T01:46:02.908Z,86.82
2023-10-19T01:47:02.939Z,86.82
2023-10-19T01:48:02.954Z,87.13
2023-10-19T01:49:02.870Z,87.24
2023-10-19T01:50:02.845Z,86.93
2023-10-19T01:51:02.837Z,86.52
2023-10-19T01:52:02.832Z,86.41
2023-10-19T01:53:02.817Z,86.21
2023-10-19T01:54:02.827Z,86.00
2023-10-19T01:55:02.805Z,85.79
2023-10-19T01:56:02.779Z,85.79
2023-10-19T01:57:03.022Z,85.59
2023-10-19T01:58:02.754Z,85.28
2023-10-19T01:59:02.794Z,85.07
2023-10-19T02:00:02.751Z,85.49
2023-10-19T02:01:02.728Z,86.10
2023-10-19T02:02:02.764Z,86.10
2023-10-19T02:03:02.765Z,85.69
2023-10-19T02:04:02.836Z,85.38
2023-10-19T02:05:02.667Z,85.38
2023-10-19T02:06:02.642Z,85.28
2023-10-19T02:07:02.661Z,85.38
2023-10-19T02:08:02.642Z,85.49
2023-10-19T02:09:02.623Z,85.59
2023-10-19T02:10:02.590Z,86.00
2023-10-19T02:11:02.582Z,86.00
2023-10-19T02:12:02.575Z,86.41
2023-10-19T02:13:02.549Z,87.44
2023-10-19T02:14:02.545Z,87.54
2023-10-19T02:15:02.517Z,88.06
2023-10-19T02:16:02.548Z,88.17
2023-10-19T02:17:02.614Z,87.75
2023-10-19T02:18:02.524Z,87.34
2023-10-19T02:19:02.483Z,87.34
2023-10-19T02:20:02.477Z,87.24
2023-10-19T02:21:02.464Z,87.44
2023-10-19T02:22:02.433Z,87.65
2023-10-19T02:23:02.415Z,87.65
2023-10-19T02:24:02.413Z,87.40
2023-10-19T02:25:02.397Z,87.75
2023-10-19T02:26:02.402Z,87.85
2023-10-19T02:27:02.710Z,87.81
2023-10-19T02:28:02.345Z,87.81
2023-10-19T02:29:02.440Z,87.92
2023-10-19T02:30:02.322Z,88.23
2023-10-19T02:31:02.357Z,88.53
2023-10-19T02:32:02.359Z,88.33
2023-10-19T02:33:02.358Z,88.12
2023-10-19T02:34:02.293Z,88.02
2023-10-19T02:35:02.353Z,88.23
2023-10-19T02:36:02.266Z,88.64
2023-10-19T02:37:02.237Z,88.95
2023-10-19T02:38:02.226Z,89.25
2023-10-19T02:39:02.217Z,89.36
2023-10-19T02:40:02.210Z,89.15
2023-10-19T02:41:02.186Z,89.15
2023-10-19T02:42:02.201Z,88.74
2023-10-19T02:43:02.195Z,88.43
2023-10-19T02:44:02.266Z,88.02
2023-10-19T02:45:02.163Z,87.71
2023-10-19T02:46:02.130Z,87.19
2023-10-19T02:47:02.268Z,86.58
2023-10-19T02:48:02.207Z,85.96
2023-10-19T02:49:02.153Z,86.68
2023-10-19T02:50:02.132Z,85.96
2023-10-19T02:51:02.853Z,85.55
2023-10-19T02:52:02.155Z,86.37
2023-10-19T02:53:02.084Z,86.68
2023-10-19T02:54:02.083Z,87.19
2023-10-19T02:55:01.997Z,86.88
2023-10-19T02:56:02.248Z,86.88
2023-10-19T02:57:02.146Z,86.88
2023-10-19T02:58:01.987Z,86.37
2023-10-19T02:59:02.185Z,85.96
2023-10-19T03:00:01.957Z,85.55
2023-10-19T03:01:02.062Z,86.99
2023-10-19T03:02:02.249Z,87.09
2023-10-19T03:03:01.987Z,87.60
2023-10-19T03:04:01.943Z,87.51
2023-10-19T03:05:01.924Z,87.40
2023-10-19T03:06:01.870Z,87.30
2023-10-19T03:07:01.845Z,86.68
2023-10-19T03:08:01.862Z,86.88
2023-10-19T03:09:01.832Z,87.30
2023-10-19T03:10:01.835Z,87.51
2023-10-19T03:11:01.819Z,87.81
2023-10-19T03:12:01.813Z,87.92
2023-10-19T03:13:01.777Z,87.09
2023-10-19T03:14:01.782Z,86.79
2023-10-19T03:15:01.817Z,87.40
2023-10-19T03:16:01.744Z,86.47
2023-10-19T03:17:02.168Z,86.37
2023-10-19T03:18:01.720Z,86.37
2023-10-19T03:19:01.714Z,86.16
2023-10-19T03:20:01.776Z,86.79
2023-10-19T03:21:01.684Z,86.79
2023-10-19T03:22:01.742Z,86.99
2023-10-19T03:23:01.698Z,86.99
2023-10-19T03:24:01.633Z,87.15
2023-10-19T03:25:01.765Z,86.27
2023-10-19T03:26:01.629Z,84.93
2023-10-19T03:27:01.581Z,85.24
2023-10-19T03:28:01.574Z,86.23
2023-10-19T03:29:01.579Z,86.64
2023-10-19T03:30:01.543Z,86.33
2023-10-19T03:31:01.573Z,86.23
2023-10-19T03:32:01.610Z,86.23
2023-10-19T03:33:01.559Z,86.43
2023-10-19T03:34:01.509Z,87.15
2023-10-19T03:35:01.632Z,87.87
2023-10-19T03:36:01.486Z,88.08
2023-10-19T03:37:01.450Z,87.87
2023-10-19T03:38:01.430Z,86.95
2023-10-19T03:39:01.396Z,86.64
2023-10-19T03:40:01.602Z,86.23
2023-10-19T03:41:01.387Z,86.02
2023-10-19T03:42:01.431Z,86.74
2023-10-19T03:43:01.355Z,87.36
2023-10-19T03:44:01.355Z,87.87
2023-10-19T03:45:01.333Z,86.85
2023-10-19T03:46:01.338Z,86.13
2023-10-19T03:47:01.531Z,85.20
2023-10-19T03:48:01.304Z,86.85
2023-10-19T03:49:01.285Z,86.13
2023-10-19T03:50:01.281Z,86.43
2023-10-19T03:51:01.299Z,86.13
2023-10-19T03:52:01.236Z,86.74
2023-10-19T03:53:01.315Z,86.43
2023-10-19T03:54:01.219Z,87.87
2023-10-19T03:55:01.202Z,88.29
2023-10-19T03:56:01.230Z,87.15
2023-10-19T03:57:01.167Z,86.95
2023-10-19T03:58:01.235Z,86.85
2023-10-19T03:59:01.154Z,86.74
2023-10-19T04:00:01.184Z,86.74
2023-10-19T04:01:01.135Z,87.15
2023-10-19T04:02:01.192Z,87.15
2023-10-19T04:03:01.216Z,86.95
2023-10-19T04:04:02.022Z,87.05
2023-10-19T04:05:01.109Z,89.01
2023-10-19T04:06:01.071Z,90.03
2023-10-19T04:07:01.055Z,89.83
2023-10-19T04:08:01.097Z,88.59
2023-10-19T04:09:01.140Z,88.39
2023-10-19T04:10:01.194Z,88.70
2023-10-19T04:11:01.057Z,89.73
2023-10-19T04:12:01.086Z,90.45
2023-10-19T04:13:00.983Z,90.45
2023-10-19T04:14:00.984Z,90.75
2023-10-19T04:15:00.948Z,90.34
2023-10-19T04:16:00.974Z,90.66
2023-10-19T04:17:01.009Z,90.66
2023-10-19T04:18:00.962Z,90.75
2023-10-19T04:19:00.935Z,89.62
2023-10-19T04:20:00.892Z,89.11
2023-10-19T04:21:00.870Z,88.29
2023-10-19T04:22:00.887Z,89.42
2023-10-19T04:23:00.875Z,90.14
2023-10-19T04:24:00.933Z,90.66
2023-10-19T04:25:00.814Z,91.58
2023-10-19T04:26:00.830Z,91.78
2023-10-19T04:27:00.791Z,91.99
2023-10-19T04:28:00.844Z,91.99
2023-10-19T04:29:00.811Z,91.99
2023-10-19T04:30:00.755Z,90.14
2023-10-19T04:31:00.890Z,89.01
2023-10-19T04:32:00.791Z,88.80
2023-10-19T04:33:00.737Z,89.11
2023-10-19T04:34:00.707Z,89.01
2023-10-19T04:35:00.736Z,88.70
2023-10-19T04:36:00.833Z,89.52
2023-10-19T04:37:00.658Z,89.73
2023-10-19T04:38:00.721Z,91.06
2023-10-19T04:39:00.627Z,90.34
2023-10-19T04:40:00.654Z,90.66
2023-10-19T04:41:00.662Z,91.17
2023-10-19T04:42:00.613Z,90.24
2023-10-19T04:43:00.694Z,89.83
2023-10-19T04:44:00.598Z,89.83
2023-10-19T04:45:00.574Z,90.24
2023-10-19T04:46:00.588Z,91.23
2023-10-19T04:47:00.608Z,92.77
2023-10-19T04:48:00.608Z,92.97
2023-10-19T04:49:00.500Z,93.29
2023-10-19T04:50:00.630Z,93.29
2023-10-19T04:51:00.483Z,93.39
2023-10-19T04:52:00.453Z,93.02
2023-10-19T04:53:00.519Z,92.40
2023-10-19T04:54:00.444Z,92.40
2023-10-19T04:55:00.432Z,92.20
2023-10-19T04:56:00.435Z,92.20
2023-10-19T04:57:00.394Z,92.10
2023-10-19T04:58:00.384Z,92.30
2023-10-19T04:59:00.397Z,92.50
2023-10-19T05:00:00.403Z,92.61
2023-10-19T05:01:00.357Z,92.67
2023-10-19T05:02:01.059Z,91.53
2023-10-19T05:03:00.382Z,91.27
2023-10-19T05:04:00.349Z,90.86
2023-10-19T05:05:00.423Z,90.61
2023-10-19T05:06:00.334Z,90.45
2023-10-19T05:07:00.254Z,90.24
2023-10-19T05:08:00.304Z,91.02
2023-10-19T05:09:00.232Z,91.33
2023-10-19T05:10:00.274Z,91.85
2023-10-19T05:11:00.323Z,91.44
2023-10-19T05:12:00.227Z,91.64
2023-10-19T05:13:00.206Z,91.06
2023-10-19T05:14:00.256Z,91.68
2023-10-19T05:15:00.187Z,91.95
2023-10-19T05:16:00.383Z,91.44
2023-10-19T05:17:00.191Z,91.44
2023-10-19T05:18:00.288Z,91.53
2023-10-19T05:19:00.091Z,91.13
2023-10-19T05:20:00.141Z,90.55
2023-10-19T05:21:00.098Z,88.49
2023-10-19T05:22:00.056Z,88.80
2023-10-19T05:23:00.080Z,89.58
2023-10-19T05:24:00.042Z,88.96
2023-10-19T05:25:00.007Z,88.35
2023-10-19T05:26:00.084Z,88.14
2023-10-19T05:27:00.002Z,88.24
2023-10-19T05:27:59.991Z,89.07
2023-10-19T05:28:59.985Z,88.86
2023-10-19T05:29:59.965Z,89.38
2023-10-19T05:30:59.934Z,89.38
2023-10-19T05:32:00.059Z,88.86
2023-10-19T05:32:59.933Z,87.73
2023-10-19T05:33:59.899Z,88.76
2023-10-19T05:35:01.211Z,88.96
2023-10-19T05:35:59.892Z,89.28
2023-10-19T05:37:00.010Z,89.79
2023-10-19T05:37:59.899Z,89.17
2023-10-19T05:38:59.836Z,88.24
2023-10-19T05:39:59.850Z,88.14
2023-10-19T05:40:59.855Z,88.66
2023-10-19T05:41:59.817Z,89.17
2023-10-19T05:42:59.780Z,88.66
2023-10-19T05:43:59.819Z,89.28
2023-10-19T05:44:59.771Z,89.58
2023-10-19T05:45:59.810Z,89.48
2023-10-19T05:47:00.504Z,89.58
2023-10-19T05:47:59.732Z,88.96
2023-10-19T05:48:59.719Z,90.20
2023-10-19T05:49:59.755Z,90.92
2023-10-19T05:50:59.693Z,91.13
2023-10-19T05:51:59.673Z,90.92
2023-10-19T05:52:59.686Z,91.33
2023-10-19T05:53:59.640Z,90.92
2023-10-19T05:54:59.656Z,90.92
2023-10-19T05:55:59.670Z,90.92
2023-10-19T05:56:59.786Z,90.81
2023-10-19T05:57:59.583Z,91.02
2023-10-19T05:58:59.632Z,91.23
2023-10-19T05:59:59.579Z,91.85
2023-10-19T06:00:59.553Z,91.85
2023-10-19T06:01:59.586Z,90.72
2023-10-19T06:02:59.579Z,91.23
2023-10-19T06:03:59.551Z,90.81
2023-10-19T06:04:59.533Z,90.20
2023-10-19T06:05:59.511Z,90.78
2023-10-19T06:06:59.470Z,90.57
2023-10-19T06:07:59.467Z,90.16
2023-10-19T06:08:59.489Z,90.16
2023-10-19T06:09:59.432Z,90.47
2023-10-19T06:10:59.460Z,90.26
2023-10-19T06:11:59.384Z,89.75
2023-10-19T06:12:59.400Z,91.80
2023-10-19T06:13:59.379Z,92.63
2023-10-19T06:14:59.366Z,92.42
2023-10-19T06:15:59.406Z,91.70
2023-10-19T06:16:59.467Z,91.49
2023-10-19T06:17:59.466Z,90.98
2023-10-19T06:18:59.414Z,90.88
2023-10-19T06:19:59.298Z,90.57
2023-10-19T06:20:59.283Z,90.06
2023-10-19T06:21:59.257Z,90.78
2023-10-19T06:22:59.293Z,90.88
2023-10-19T06:23:59.239Z,91.39
2023-10-19T06:24:59.234Z,91.29
2023-10-19T06:25:59.271Z,91.39
2023-10-19T06:26:59.201Z,90.98
2023-10-19T06:27:59.194Z,90.88
2023-10-19T06:28:59.233Z,91.49
2023-10-19T06:29:59.146Z,90.67
2023-10-19T06:30:59.137Z,90.78
2023-10-19T06:31:59.228Z,90.36
2023-10-19T06:32:59.189Z,90.88
2023-10-19T06:33:59.212Z,90.57
2023-10-19T06:34:59.135Z,89.85
2023-10-19T06:35:59.069Z,91.08
2023-10-19T06:36:59.099Z,92.27
2023-10-19T06:37:59.101Z,92.27
2023-10-19T06:38:59.035Z,92.42
2023-10-19T06:39:59.023Z,92.01
2023-10-19T06:40:59.078Z,92.73
2023-10-19T06:41:59.012Z,93.14
2023-10-19T06:42:59.002Z,93.55
2023-10-19T06:43:59.004Z,93.55
2023-10-19T06:44:58.958Z,92.73
2023-10-19T06:45:58.984Z,92.63
2023-10-19T06:46:58.969Z,92.21
2023-10-19T06:47:58.937Z,93.04
2023-10-19T06:48:58.908Z,92.93
2023-10-19T06:49:58.936Z,93.44
2023-10-19T06:50:58.898Z,93.24
2023-10-19T06:51:58.842Z,93.65
2023-10-19T06:52:58.884Z,93.86
2023-10-19T06:53:58.878Z,93.96
2023-10-19T06:54:58.846Z,93.55
2023-10-19T06:55:58.837Z,93.24
2023-10-19T06:56:58.793Z,93.14
2023-10-19T06:57:58.769Z,93.24
2023-10-19T06:58:58.789Z,93.14
2023-10-19T06:59:58.766Z,93.04
2023-10-19T07:00:58.742Z,93.04
2023-10-19T07:01:58.758Z,92.32
2023-10-19T07:02:58.733Z,92.01
2023-10-19T07:03:58.753Z,91.60
2023-10-19T07:04:58.726Z,91.55
2023-10-19T07:05:58.683Z,91.66
2023-10-19T07:06:58.663Z,91.14
2023-10-19T07:07:58.695Z,90.53
2023-10-19T07:08:58.653Z,90.83
2023-10-19T07:09:58.633Z,90.42
2023-10-19T07:10:58.641Z,90.42
2023-10-19T07:11:58.585Z,91.04
2023-10-19T07:12:58.594Z,91.55
2023-10-19T07:13:58.643Z,91.55
2023-10-19T07:14:58.555Z,92.48
2023-10-19T07:15:58.571Z,92.58
2023-10-19T07:16:58.637Z,92.58
2023-10-19T07:17:58.535Z,92.27
2023-10-19T07:18:58.513Z,92.07
2023-10-19T07:19:58.510Z,91.76
2023-10-19T07:20:58.462Z,91.97
2023-10-19T07:21:58.481Z,92.17
2023-10-19T07:22:58.537Z,92.27
2023-10-19T07:23:58.447Z,92.58
2023-10-19T07:24:58.442Z,92.69
2023-10-19T07:25:58.425Z,92.74
2023-10-19T07:26:58.432Z,92.85
2023-10-19T07:27:58.391Z,92.95
2023-10-19T07:28:58.440Z,92.95
2023-10-19T07:29:58.375Z,92.85
2023-10-19T07:30:58.351Z,92.74
2023-10-19T07:31:58.495Z,93.16
2023-10-19T07:32:58.366Z,93.98
2023-10-19T07:33:58.320Z,94.29
2023-10-19T07:34:58.301Z,95.01
2023-10-19T07:35:58.274Z,95.17
2023-10-19T07:36:58.272Z,95.78
2023-10-19T07:37:58.404Z,96.19
2023-10-19T07:38:58.247Z,96.09
2023-10-19T07:39:58.226Z,96.19
2023-10-19T07:40:58.925Z,96.09
2023-10-19T07:41:58.209Z,95.98
2023-10-19T07:42:58.189Z,96.09
2023-10-19T07:43:58.214Z,96.19
2023-10-19T07:44:58.172Z,96.19
2023-10-19T07:45:58.174Z,96.09
2023-10-19T07:46:58.178Z,95.98
2023-10-19T07:47:58.139Z,96.30
2023-10-19T07:48:58.132Z,96.15
2023-10-19T07:49:58.133Z,96.45
2023-10-19T07:50:58.102Z,96.66
2023-10-19T07:51:59.126Z,96.56
2023-10-19T07:52:58.086Z,96.56
2023-10-19T07:53:58.089Z,96.77
2023-10-19T07:54:58.024Z,96.77
2023-10-19T07:55:58.068Z,96.77
2023-10-19T07:56:57.998Z,96.77
2023-10-19T07:57:57.977Z,96.66
2023-10-19T07:58:58.100Z,96.62
2023-10-19T07:59:57.967Z,96.51
2023-10-19T08:00:58.214Z,96.00
2023-10-19T08:01:57.979Z,96.20
2023-10-19T08:02:57.966Z,96.20
2023-10-19T08:03:57.981Z,96.31
2023-10-19T08:04:57.920Z,96.41
2023-10-19T08:05:57.865Z,96.41
2023-10-19T08:06:57.853Z,96.51
2023-10-19T08:07:57.913Z,96.57
2023-10-19T08:08:57.846Z,96.57
2023-10-19T08:09:57.819Z,96.57
2023-10-19T08:10:57.932Z,96.47
2023-10-19T08:11:58.474Z,96.47
2023-10-19T08:12:57.787Z,96.57
2023-10-19T08:13:57.789Z,96.57
2023-10-19T08:14:57.745Z,96.67
2023-10-19T08:15:57.762Z,96.73
2023-10-19T08:16:57.775Z,96.63
2023-10-19T08:17:57.750Z,96.73
2023-10-19T08:18:57.796Z,96.73
2023-10-19T08:19:57.718Z,96.73
2023-10-19T08:20:57.759Z,96.73
2023-10-19T08:21:57.622Z,96.63
2023-10-19T08:22:57.697Z,96.73
2023-10-19T08:23:57.627Z,96.63
2023-10-19T08:24:57.606Z,96.48
2023-10-19T08:25:57.947Z,96.48
2023-10-19T08:26:57.591Z,96.38
2023-10-19T08:27:57.584Z,96.38
2023-10-19T08:28:57.594Z,96.17
2023-10-19T08:29:57.533Z,96.07
2023-10-19T08:30:57.976Z,96.13
2023-10-19T08:31:57.592Z,96.03
2023-10-19T08:32:57.547Z,96.03
2023-10-19T08:33:57.538Z,95.92
2023-10-19T08:34:57.569Z,95.98
2023-10-19T08:35:57.523Z,95.98
2023-10-19T08:36:57.457Z,95.84
2023-10-19T08:37:57.471Z,95.94
2023-10-19T08:38:57.434Z,95.79
2023-10-19T08:39:57.395Z,95.79
2023-10-19T08:40:58.116Z,95.59
2023-10-19T08:41:57.385Z,95.13
2023-10-19T08:42:57.364Z,94.93
2023-10-19T08:43:57.421Z,93.29
2023-10-19T08:44:57.340Z,93.09
2023-10-19T08:45:57.393Z,93.09
2023-10-19T08:46:58.754Z,93.09
2023-10-19T08:47:57.432Z,92.78
2023-10-19T08:48:57.289Z,92.47
2023-10-19T08:49:57.288Z,92.33
2023-10-19T08:50:57.326Z,92.13
2023-10-19T08:51:57.215Z,92.33
2023-10-19T08:52:57.313Z,92.54
2023-10-19T08:53:57.203Z,92.54
2023-10-19T08:54:57.200Z,92.39
2023-10-19T08:55:57.218Z,92.29
2023-10-19T08:56:57.155Z,91.94
2023-10-19T08:57:57.146Z,91.49
2023-10-19T08:58:57.233Z,90.77
2023-10-19T08:59:57.117Z,89.61
2023-10-19T09:00:57.265Z,88.55
2023-10-19T09:01:57.093Z,87.32
2023-10-19T09:02:57.112Z,86.98
2023-10-19T09:03:57.117Z,86.83
2023-10-19T09:04:57.197Z,86.35
2023-10-19T09:05:57.044Z,84.34
2023-10-19T09:06:57.053Z,83.53
2023-10-19T09:07:57.065Z,84.84
2023-10-19T09:08:56.999Z,84.95
2023-10-19T09:09:57.016Z,85.25
2023-10-19T09:10:57.076Z,84.74
2023-10-19T09:11:56.968Z,84.74
2023-10-19T09:12:56.958Z,84.03
2023-10-19T09:13:57.008Z,84.13
2023-10-19T09:14:56.934Z,83.53
2023-10-19T09:15:57.873Z,84.13
2023-10-19T09:16:56.992Z,84.95
2023-10-19T09:17:56.925Z,84.64
2023-10-19T09:18:56.883Z,84.23
2023-10-19T09:19:56.920Z,83.15
2023-10-19T09:20:56.873Z,83.26
2023-10-19T09:21:56.842Z,83.67
2023-10-19T09:22:56.883Z,83.56
2023-10-19T09:23:56.828Z,83.67
2023-10-19T09:24:56.826Z,84.17
2023-10-19T09:25:56.866Z,83.67
2023-10-19T09:26:56.761Z,83.87
2023-10-19T09:27:56.809Z,83.26
2023-10-19T09:28:56.815Z,83.67
2023-10-19T09:29:56.723Z,83.67
2023-10-19T09:30:56.719Z,83.73
2023-10-19T09:31:56.731Z,83.93
2023-10-19T09:32:56.795Z,82.00
2023-10-19T09:33:56.689Z,81.90
2023-10-19T09:34:56.683Z,82.26
2023-10-19T09:35:56.636Z,82.26
2023-10-19T09:36:56.628Z,82.78
2023-10-19T09:37:56.649Z,82.23
2023-10-19T09:38:56.599Z,80.80
2023-10-19T09:39:56.596Z,81.11
2023-10-19T09:40:56.689Z,81.11
2023-10-19T09:41:56.574Z,80.71
2023-10-19T09:42:56.719Z,80.46
2023-10-19T09:43:56.610Z,81.07
2023-10-19T09:44:56.578Z,81.78
2023-10-19T09:45:56.516Z,81.64
2023-10-19T09:46:56.572Z,81.85
2023-10-19T09:47:56.574Z,80.99
2023-10-19T09:48:56.472Z,79.44
2023-10-19T09:49:56.483Z,80.11
2023-10-19T09:50:56.453Z,78.45
2023-10-19T09:52:57.426Z,77.95
2023-10-19T09:53:56.399Z,76.70
2023-10-19T09:54:56.378Z,76.70
2023-10-19T09:55:56.464Z,77.91
2023-10-19T09:56:56.367Z,75.28
2023-10-19T09:57:56.369Z,75.38
2023-10-19T09:58:56.380Z,75.28
2023-10-19T09:59:56.337Z,76.29
2023-10-19T10:00:56.382Z,73.96
2023-10-19T10:01:56.388Z,74.57
2023-10-19T10:02:56.322Z,76.09
2023-10-19T10:03:56.289Z,78.17
2023-10-19T10:04:56.298Z,77.47
2023-10-19T10:05:56.488Z,77.53
2023-10-19T10:06:56.270Z,78.30
2023-10-19T10:07:56.260Z,77.70
2023-10-19T10:08:56.215Z,76.08
2023-10-19T10:09:56.225Z,75.17
2023-10-19T10:10:56.263Z,76.08
2023-10-19T10:11:56.188Z,76.39
2023-10-19T10:12:56.163Z,74.77
2023-10-19T10:13:56.248Z,74.60
2023-10-19T10:14:56.235Z,75.01
2023-10-19T10:15:56.137Z,75.71
2023-10-19T10:16:56.163Z,75.10
2023-10-19T10:17:56.168Z,73.79
2023-10-19T10:18:56.085Z,73.59
2023-10-19T10:19:56.210Z,74.50
2023-10-19T10:20:56.119Z,73.99
2023-10-19T10:21:56.080Z,74.70
2023-10-19T10:22:56.057Z,75.04
2023-10-19T10:23:56.090Z,75.34
2023-10-19T10:24:56.028Z,75.75
2023-10-19T10:25:56.085Z,75.55
2023-10-19T10:26:56.019Z,74.27
2023-10-19T10:27:55.991Z,75.58
2023-10-19T10:28:56.008Z,76.53
2023-10-19T10:29:55.967Z,77.34
2023-10-19T10:30:56.008Z,76.63
2023-10-19T10:31:55.975Z,76.83
2023-10-19T10:32:55.956Z,76.77
2023-10-19T10:33:56.148Z,77.17
2023-10-19T10:34:55.938Z,77.37
2023-10-19T10:35:55.870Z,77.31
2023-10-19T10:36:55.860Z,77.72
2023-10-19T10:37:55.900Z,78.22
2023-10-19T10:38:55.833Z,78.53
2023-10-19T10:39:55.796Z,78.63
2023-10-19T10:40:55.843Z,78.89
2023-10-19T10:41:55.776Z,79.06
2023-10-19T10:42:55.774Z,79.26
2023-10-19T10:43:55.776Z,78.82
2023-10-19T10:44:55.726Z,78.48
2023-10-19T10:45:55.728Z,77.57
2023-10-19T10:46:55.786Z,78.14
2023-10-19T10:47:55.750Z,76.99
2023-10-19T10:48:55.696Z,76.25
2023-10-19T10:49:55.772Z,74.22
2023-10-19T10:50:56.912Z,73.79
2023-10-19T10:51:55.659Z,73.58
2023-10-19T10:52:55.676Z,72.88
2023-10-19T10:53:55.628Z,73.65
2023-10-19T10:54:55.604Z,73.15
2023-10-19T10:55:55.765Z,74.26
2023-10-19T10:56:55.572Z,75.03
2023-10-19T10:57:55.576Z,71.30
2023-10-19T10:58:55.626Z,70.09
2023-10-19T10:59:55.564Z,72.41
2023-10-19T11:00:55.559Z,74.32
2023-10-19T11:01:55.625Z,74.52
2023-10-19T11:02:55.523Z,74.19
2023-10-19T11:03:56.988Z,73.48
2023-10-19T11:04:55.541Z,72.98
2023-10-19T11:05:55.638Z,71.57
2023-10-19T11:06:55.459Z,72.47
2023-10-19T11:07:55.454Z,71.44
2023-10-19T11:08:55.447Z,72.24
2023-10-19T11:09:57.431Z,72.74
2023-10-19T11:10:55.449Z,72.44
2023-10-19T11:11:55.391Z,71.53
2023-10-19T11:12:55.362Z,72.04
2023-10-19T11:13:55.459Z,71.84
2023-10-19T11:14:55.351Z,71.64
2023-10-19T11:15:58.679Z,72.41
2023-10-19T11:16:55.421Z,70.79
2023-10-19T11:17:55.363Z,70.79
2023-10-19T11:18:55.295Z,70.90
2023-10-19T11:19:55.338Z,70.50
2023-10-19T11:20:55.285Z,71.40
2023-10-19T11:21:58.376Z,71.20
2023-10-19T11:22:56.291Z,70.50
2023-10-19T11:23:55.252Z,71.00
2023-10-19T11:24:55.211Z,69.69
2023-10-19T11:25:55.260Z,70.50
2023-10-19T11:26:55.181Z,71.20
2023-10-19T11:27:57.014Z,70.59
2023-10-19T11:28:55.229Z,71.13
2023-10-19T11:29:55.160Z,70.32
2023-10-19T11:30:55.140Z,70.42
2023-10-19T11:31:55.146Z,71.73
2023-10-19T11:32:55.194Z,72.44
2023-10-19T11:33:55.109Z,72.24
2023-10-19T11:34:55.156Z,70.53
2023-10-19T11:35:55.147Z,71.03
2023-10-19T11:36:55.071Z,71.03
2023-10-19T11:37:55.069Z,71.26
2023-10-19T11:38:55.070Z,70.97
2023-10-19T11:39:55.015Z,71.67
2023-10-19T11:40:55.034Z,71.57
2023-10-19T11:41:54.983Z,71.87
2023-10-19T11:42:54.968Z,71.97
2023-10-19T11:43:57.210Z,72.07
2023-10-19T11:44:54.928Z,71.26
2023-10-19T11:45:54.955Z,72.38
2023-10-19T11:46:55.015Z,72.58
2023-10-19T11:47:54.927Z,73.18
2023-10-19T11:48:54.887Z,72.78
2023-10-19T11:49:54.910Z,72.27
2023-10-19T11:50:54.866Z,72.07
2023-10-19T11:51:54.841Z,72.98
2023-10-19T11:52:54.982Z,72.27
2023-10-19T11:53:54.815Z,72.47
2023-10-19T11:54:54.811Z,73.38
2023-10-19T11:55:54.824Z,73.48
2023-10-19T11:56:54.783Z,72.88
2023-10-19T11:57:54.768Z,73.28
2023-10-19T11:58:54.774Z,72.44
2023-10-19T11:59:57.306Z,72.34
2023-10-19T12:00:54.722Z,72.04
2023-10-19T12:01:54.814Z,71.73
2023-10-19T12:02:54.876Z,72.27
2023-10-19T12:03:54.691Z,73.08
2023-10-19T12:04:54.686Z,72.27
2023-10-19T12:05:57.241Z,72.38
2023-10-19T12:06:54.660Z,72.67
2023-10-19T12:07:54.689Z,73.68
2023-10-19T12:08:54.615Z,72.78
2023-10-19T12:09:54.612Z,73.08
2023-10-19T12:10:54.606Z,73.58
2023-10-19T12:11:54.637Z,73.88
2023-10-19T12:13:02.028Z,73.68
2023-10-19T12:13:55.640Z,74.29
2023-10-19T12:14:54.562Z,74.08
2023-10-19T12:15:54.560Z,74.90
2023-10-19T12:17:54.674Z,74.99
2023-10-19T12:18:54.498Z,74.90
2023-10-19T12:19:54.509Z,74.32
2023-10-19T12:20:54.474Z,74.83
2023-10-19T12:21:54.433Z,74.63
2023-10-19T12:22:54.506Z,74.02
2023-10-19T12:23:54.427Z,74.43
2023-10-19T12:24:54.408Z,74.69
2023-10-19T12:25:57.697Z,75.20
2023-10-19T12:26:54.377Z,73.99
2023-10-19T12:27:54.373Z,73.99
2023-10-19T12:28:54.347Z,73.68
2023-10-19T12:29:54.349Z,74.08
2023-10-19T12:30:54.415Z,73.28
2023-10-19T12:31:54.366Z,73.99
2023-10-19T12:32:54.354Z,73.95
2023-10-19T12:33:54.279Z,73.79
2023-10-19T12:34:54.310Z,74.08
2023-10-19T12:35:54.247Z,73.99
2023-10-19T12:36:54.227Z,73.38
2023-10-19T12:37:54.292Z,73.38
2023-10-19T12:38:57.798Z,73.99
2023-10-19T12:39:54.187Z,74.59
2023-10-19T12:40:54.208Z,74.39
2023-10-19T12:41:54.156Z,74.79
2023-10-19T12:42:54.168Z,74.99
2023-10-19T12:43:54.471Z,74.59
2023-10-19T12:44:54.101Z,74.59
2023-10-19T12:45:54.147Z,74.49
2023-10-19T12:46:54.291Z,74.59
2023-10-19T12:47:54.141Z,74.79
2023-10-19T12:48:54.144Z,74.59
2023-10-19T12:49:56.461Z,74.49
2023-10-19T12:50:54.035Z,74.19
2023-10-19T12:51:54.048Z,74.69
2023-10-19T12:52:54.104Z,74.69
2023-10-19T12:53:54.006Z,74.08